sensor_id;sensor_type;location;lat;lon;timestamp;P1;durP1;ratioP1;P2;durP2;ratioP2
59587;SDS011;45412;54.472;18.464;2022-08-19T00:00:31;17.70;;;10.00;;
59587;SDS011;45412;54.472;18.464;2022-08-19T00:03:19;16.00;;;10.30;;
59587;SDS011;45412;54.472;18.464;2022-08-19T00:06:07;15.00;;;10.10;;
59587;SDS011;45412;54.472;18.464;2022-08-19T00:08:56;15.90;;;10.10;;
59587;SDS011;45412;54.472;18.464;2022-08-19T00:11:47;15.50;;;10.50;;
59587;SDS011;45412;54.472;18.464;2022-08-19T00:14:35;14.70;;;9.80;;
59587;SDS011;45412;54.472;18.464;2022-08-19T00:17:25;19.60;;;10.80;;
59587;SDS011;45412;54.472;18.464;2022-08-19T00:20:17;18.40;;;9.90;;
59587;SDS011;45412;54.472;18.464;2022-08-19T00:23:07;18.50;;;10.40;;
59587;SDS011;45412;54.472;18.464;2022-08-19T00:25:57;17.00;;;10.10;;
59587;SDS011;45412;54.472;18.464;2022-08-19T00:28:45;17.10;;;10.30;;
59587;SDS011;45412;54.472;18.464;2022-08-19T00:31:34;18.90;;;9.80;;
59587;SDS011;45412;54.472;18.464;2022-08-19T00:34:25;14.50;;;10.00;;
59587;SDS011;45412;54.472;18.464;2022-08-19T00:37:15;17.60;;;10.90;;
59587;SDS011;45412;54.472;18.464;2022-08-19T00:40:05;16.10;;;10.30;;
59587;SDS011;45412;54.472;18.464;2022-08-19T00:42:54;15.00;;;9.90;;
59587;SDS011;45412;54.472;18.464;2022-08-19T00:45:42;18.30;;;10.70;;
59587;SDS011;45412;54.472;18.464;2022-08-19T00:48:31;16.30;;;9.90;;
59587;SDS011;45412;54.472;18.464;2022-08-19T00:51:21;17.20;;;10.90;;
59587;SDS011;45412;54.472;18.464;2022-08-19T00:54:09;17.90;;;9.90;;
59587;SDS011;45412;54.472;18.464;2022-08-19T00:56:59;16.90;;;10.30;;
59587;SDS011;45412;54.472;18.464;2022-08-19T00:59:52;15.90;;;10.20;;
59587;SDS011;45412;54.472;18.464;2022-08-19T01:02:49;19.00;;;10.30;;
59587;SDS011;45412;54.472;18.464;2022-08-19T01:05:41;15.90;;;10.00;;
59587;SDS011;45412;54.472;18.464;2022-08-19T01:08:31;15.90;;;10.00;;
59587;SDS011;45412;54.472;18.464;2022-08-19T01:11:18;16.50;;;9.90;;
59587;SDS011;45412;54.472;18.464;2022-08-19T01:14:07;16.60;;;9.70;;
59587;SDS011;45412;54.472;18.464;2022-08-19T01:16:57;14.70;;;9.80;;
59587;SDS011;45412;54.472;18.464;2022-08-19T01:19:47;15.10;;;9.30;;
59587;SDS011;45412;54.472;18.464;2022-08-19T01:22:39;15.10;;;10.50;;
59587;SDS011;45412;54.472;18.464;2022-08-19T01:25:59;16.40;;;9.80;;
59587;SDS011;45412;54.472;18.464;2022-08-19T01:28:51;14.80;;;9.80;;
59587;SDS011;45412;54.472;18.464;2022-08-19T01:31:47;14.50;;;9.40;;
59587;SDS011;45412;54.472;18.464;2022-08-19T01:34:36;15.60;;;10.10;;
59587;SDS011;45412;54.472;18.464;2022-08-19T01:37:24;16.00;;;9.90;;
59587;SDS011;45412;54.472;18.464;2022-08-19T01:40:14;15.50;;;10.50;;
59587;SDS011;45412;54.472;18.464;2022-08-19T01:43:04;15.50;;;10.10;;
59587;SDS011;45412;54.472;18.464;2022-08-19T01:45:53;16.10;;;9.40;;
59587;SDS011;45412;54.472;18.464;2022-08-19T01:48:42;18.80;;;9.90;;
59587;SDS011;45412;54.472;18.464;2022-08-19T01:51:31;18.50;;;9.80;;
59587;SDS011;45412;54.472;18.464;2022-08-19T01:54:27;14.30;;;10.10;;
59587;SDS011;45412;54.472;18.464;2022-08-19T01:57:15;16.40;;;10.20;;
59587;SDS011;45412;54.472;18.464;2022-08-19T02:00:07;15.70;;;10.10;;
59587;SDS011;45412;54.472;18.464;2022-08-19T02:02:58;18.90;;;10.60;;
59587;SDS011;45412;54.472;18.464;2022-08-19T02:05:46;17.10;;;10.60;;
59587;SDS011;45412;54.472;18.464;2022-08-19T02:08:36;15.10;;;10.90;;
59587;SDS011;45412;54.472;18.464;2022-08-19T02:11:28;17.00;;;11.10;;
59587;SDS011;45412;54.472;18.464;2022-08-19T02:14:19;17.40;;;11.40;;
59587;SDS011;45412;54.472;18.464;2022-08-19T02:17:07;18.00;;;11.50;;
59587;SDS011;45412;54.472;18.464;2022-08-19T02:19:55;15.50;;;10.60;;
59587;SDS011;45412;54.472;18.464;2022-08-19T02:22:44;17.60;;;10.70;;
59587;SDS011;45412;54.472;18.464;2022-08-19T02:25:32;18.10;;;11.90;;
59587;SDS011;45412;54.472;18.464;2022-08-19T02:28:20;16.00;;;11.10;;
59587;SDS011;45412;54.472;18.464;2022-08-19T02:31:10;17.30;;;11.30;;
59587;SDS011;45412;54.472;18.464;2022-08-19T02:34:00;18.40;;;11.60;;
59587;SDS011;45412;54.472;18.464;2022-08-19T02:36:48;20.90;;;11.50;;
59587;SDS011;45412;54.472;18.464;2022-08-19T02:39:38;17.30;;;11.00;;
59587;SDS011;45412;54.472;18.464;2022-08-19T02:42:26;17.00;;;11.10;;
59587;SDS011;45412;54.472;18.464;2022-08-19T02:45:14;18.30;;;11.20;;
59587;SDS011;45412;54.472;18.464;2022-08-19T02:48:03;17.50;;;11.10;;
59587;SDS011;45412;54.472;18.464;2022-08-19T02:51:04;16.90;;;11.00;;
59587;SDS011;45412;54.472;18.464;2022-08-19T02:53:52;18.00;;;10.80;;
59587;SDS011;45412;54.472;18.464;2022-08-19T02:56:42;17.00;;;10.50;;
59587;SDS011;45412;54.472;18.464;2022-08-19T02:59:32;18.10;;;10.90;;
59587;SDS011;45412;54.472;18.464;2022-08-19T03:02:20;17.40;;;10.40;;
59587;SDS011;45412;54.472;18.464;2022-08-19T03:05:08;16.70;;;10.60;;
59587;SDS011;45412;54.472;18.464;2022-08-19T03:07:57;17.90;;;11.30;;
59587;SDS011;45412;54.472;18.464;2022-08-19T03:10:47;19.90;;;11.50;;
59587;SDS011;45412;54.472;18.464;2022-08-19T03:13:35;17.20;;;11.00;;
59587;SDS011;45412;54.472;18.464;2022-08-19T03:16:25;16.80;;;10.60;;
59587;SDS011;45412;54.472;18.464;2022-08-19T03:19:23;15.60;;;10.60;;
59587;SDS011;45412;54.472;18.464;2022-08-19T03:22:11;18.90;;;11.30;;
59587;SDS011;45412;54.472;18.464;2022-08-19T03:25:00;17.80;;;11.00;;
59587;SDS011;45412;54.472;18.464;2022-08-19T03:27:48;16.10;;;11.40;;
59587;SDS011;45412;54.472;18.464;2022-08-19T03:30:42;16.50;;;10.90;;
59587;SDS011;45412;54.472;18.464;2022-08-19T03:33:44;16.00;;;10.40;;
59587;SDS011;45412;54.472;18.464;2022-08-19T03:36:32;18.30;;;11.20;;
59587;SDS011;45412;54.472;18.464;2022-08-19T03:39:21;17.50;;;10.50;;
59587;SDS011;45412;54.472;18.464;2022-08-19T03:42:11;17.50;;;10.60;;
59587;SDS011;45412;54.472;18.464;2022-08-19T03:45:19;16.40;;;10.90;;
59587;SDS011;45412;54.472;18.464;2022-08-19T03:48:07;16.10;;;10.70;;
59587;SDS011;45412;54.472;18.464;2022-08-19T03:50:56;19.10;;;11.50;;
59587;SDS011;45412;54.472;18.464;2022-08-19T03:53:46;16.50;;;10.70;;
59587;SDS011;45412;54.472;18.464;2022-08-19T03:56:36;15.10;;;10.40;;
59587;SDS011;45412;54.472;18.464;2022-08-19T03:59:34;17.40;;;11.00;;
59587;SDS011;45412;54.472;18.464;2022-08-19T04:02:23;15.90;;;11.20;;
59587;SDS011;45412;54.472;18.464;2022-08-19T04:05:11;18.10;;;11.40;;
59587;SDS011;45412;54.472;18.464;2022-08-19T04:08:01;19.60;;;11.80;;
59587;SDS011;45412;54.472;18.464;2022-08-19T04:10:49;19.80;;;11.50;;
59587;SDS011;45412;54.472;18.464;2022-08-19T04:13:37;17.40;;;10.60;;
59587;SDS011;45412;54.472;18.464;2022-08-19T04:16:27;17.00;;;11.00;;
59587;SDS011;45412;54.472;18.464;2022-08-19T04:19:22;17.20;;;11.90;;
59587;SDS011;45412;54.472;18.464;2022-08-19T04:22:10;18.50;;;10.70;;
59587;SDS011;45412;54.472;18.464;2022-08-19T04:24:59;17.70;;;10.70;;
59587;SDS011;45412;54.472;18.464;2022-08-19T04:27:47;17.30;;;11.20;;
59587;SDS011;45412;54.472;18.464;2022-08-19T04:30:45;19.00;;;11.60;;
59587;SDS011;45412;54.472;18.464;2022-08-19T04:33:35;18.60;;;11.70;;
59587;SDS011;45412;54.472;18.464;2022-08-19T04:36:25;19.40;;;12.30;;
59587;SDS011;45412;54.472;18.464;2022-08-19T04:39:16;17.00;;;11.40;;
59587;SDS011;45412;54.472;18.464;2022-08-19T04:42:06;20.50;;;11.10;;
59587;SDS011;45412;54.472;18.464;2022-08-19T04:45:17;18.10;;;11.60;;
59587;SDS011;45412;54.472;18.464;2022-08-19T04:48:09;19.20;;;11.10;;
59587;SDS011;45412;54.472;18.464;2022-08-19T04:51:12;18.80;;;11.30;;
59587;SDS011;45412;54.472;18.464;2022-08-19T04:54:01;17.90;;;11.00;;
59587;SDS011;45412;54.472;18.464;2022-08-19T04:56:52;17.30;;;10.60;;
59587;SDS011;45412;54.472;18.464;2022-08-19T04:59:40;19.50;;;11.70;;
59587;SDS011;45412;54.472;18.464;2022-08-19T05:02:29;20.20;;;11.50;;
59587;SDS011;45412;54.472;18.464;2022-08-19T05:05:17;20.40;;;12.10;;
59587;SDS011;45412;54.472;18.464;2022-08-19T05:08:07;18.30;;;11.80;;
59587;SDS011;45412;54.472;18.464;2022-08-19T05:10:55;16.40;;;11.10;;
59587;SDS011;45412;54.472;18.464;2022-08-19T05:13:45;24.00;;;13.00;;
59587;SDS011;45412;54.472;18.464;2022-08-19T05:16:34;18.50;;;11.40;;
59587;SDS011;45412;54.472;18.464;2022-08-19T05:19:22;17.90;;;10.40;;
59587;SDS011;45412;54.472;18.464;2022-08-19T05:22:29;20.20;;;11.00;;
59587;SDS011;45412;54.472;18.464;2022-08-19T05:25:22;18.80;;;11.00;;
59587;SDS011;45412;54.472;18.464;2022-08-19T05:28:11;19.10;;;10.80;;
59587;SDS011;45412;54.472;18.464;2022-08-19T05:30:59;20.60;;;11.20;;
59587;SDS011;45412;54.472;18.464;2022-08-19T05:33:47;18.70;;;10.90;;
59587;SDS011;45412;54.472;18.464;2022-08-19T05:36:37;18.40;;;11.50;;
59587;SDS011;45412;54.472;18.464;2022-08-19T05:39:29;18.50;;;11.50;;
59587;SDS011;45412;54.472;18.464;2022-08-19T05:42:22;16.60;;;10.90;;
59587;SDS011;45412;54.472;18.464;2022-08-19T05:45:11;18.70;;;10.80;;
59587;SDS011;45412;54.472;18.464;2022-08-19T05:48:00;20.50;;;10.30;;
59587;SDS011;45412;54.472;18.464;2022-08-19T05:50:48;17.60;;;10.20;;
59587;SDS011;45412;54.472;18.464;2022-08-19T05:53:37;16.90;;;9.70;;
59587;SDS011;45412;54.472;18.464;2022-08-19T05:56:25;14.50;;;9.30;;
59587;SDS011;45412;54.472;18.464;2022-08-19T05:59:14;14.40;;;9.10;;
59587;SDS011;45412;54.472;18.464;2022-08-19T06:02:06;14.20;;;8.20;;
59587;SDS011;45412;54.472;18.464;2022-08-19T06:04:54;12.60;;;8.20;;
59587;SDS011;45412;54.472;18.464;2022-08-19T06:07:42;14.40;;;8.20;;
59587;SDS011;45412;54.472;18.464;2022-08-19T06:10:30;15.10;;;8.30;;
59587;SDS011;45412;54.472;18.464;2022-08-19T06:13:18;16.50;;;11.60;;
59587;SDS011;45412;54.472;18.464;2022-08-19T06:16:07;12.70;;;7.50;;
59587;SDS011;45412;54.472;18.464;2022-08-19T06:18:59;14.30;;;7.80;;
59587;SDS011;45412;54.472;18.464;2022-08-19T06:21:49;15.20;;;8.50;;
59587;SDS011;45412;54.472;18.464;2022-08-19T06:24:38;17.70;;;9.00;;
59587;SDS011;45412;54.472;18.464;2022-08-19T06:27:26;12.30;;;7.00;;
59587;SDS011;45412;54.472;18.464;2022-08-19T06:30:14;14.50;;;8.10;;
59587;SDS011;45412;54.472;18.464;2022-08-19T06:33:03;13.40;;;7.80;;
59587;SDS011;45412;54.472;18.464;2022-08-19T06:35:51;14.60;;;7.60;;
59587;SDS011;45412;54.472;18.464;2022-08-19T06:38:39;12.30;;;7.70;;
59587;SDS011;45412;54.472;18.464;2022-08-19T06:41:30;15.80;;;8.10;;
59587;SDS011;45412;54.472;18.464;2022-08-19T06:44:25;11.80;;;7.40;;
59587;SDS011;45412;54.472;18.464;2022-08-19T06:47:20;14.30;;;7.50;;
59587;SDS011;45412;54.472;18.464;2022-08-19T06:50:14;13.00;;;7.00;;
59587;SDS011;45412;54.472;18.464;2022-08-19T06:53:05;13.60;;;7.20;;
59587;SDS011;45412;54.472;18.464;2022-08-19T06:55:53;12.20;;;6.50;;
59587;SDS011;45412;54.472;18.464;2022-08-19T06:58:47;9.60;;;6.30;;
59587;SDS011;45412;54.472;18.464;2022-08-19T07:01:47;14.40;;;6.80;;
59587;SDS011;45412;54.472;18.464;2022-08-19T07:04:37;13.50;;;7.00;;
59587;SDS011;45412;54.472;18.464;2022-08-19T07:07:29;11.50;;;6.40;;
59587;SDS011;45412;54.472;18.464;2022-08-19T07:10:20;12.60;;;6.50;;
59587;SDS011;45412;54.472;18.464;2022-08-19T07:13:12;12.80;;;6.20;;
59587;SDS011;45412;54.472;18.464;2022-08-19T07:16:04;14.70;;;6.70;;
59587;SDS011;45412;54.472;18.464;2022-08-19T07:18:55;12.50;;;6.80;;
59587;SDS011;45412;54.472;18.464;2022-08-19T07:21:44;13.30;;;6.70;;
59587;SDS011;45412;54.472;18.464;2022-08-19T07:24:34;12.60;;;5.90;;
59587;SDS011;45412;54.472;18.464;2022-08-19T07:27:23;12.20;;;6.10;;
59587;SDS011;45412;54.472;18.464;2022-08-19T07:30:12;9.90;;;5.60;;
59587;SDS011;45412;54.472;18.464;2022-08-19T07:33:00;12.80;;;6.10;;
59587;SDS011;45412;54.472;18.464;2022-08-19T07:35:50;10.50;;;6.00;;
59587;SDS011;45412;54.472;18.464;2022-08-19T07:38:43;14.10;;;6.20;;
59587;SDS011;45412;54.472;18.464;2022-08-19T07:41:35;12.90;;;6.10;;
59587;SDS011;45412;54.472;18.464;2022-08-19T07:44:24;13.30;;;6.20;;
59587;SDS011;45412;54.472;18.464;2022-08-19T07:47:13;13.20;;;6.20;;
59587;SDS011;45412;54.472;18.464;2022-08-19T07:50:23;10.10;;;5.80;;
59587;SDS011;45412;54.472;18.464;2022-08-19T07:53:11;10.10;;;5.80;;
59587;SDS011;45412;54.472;18.464;2022-08-19T07:56:00;11.80;;;5.70;;
59587;SDS011;45412;54.472;18.464;2022-08-19T07:58:52;12.70;;;6.10;;
59587;SDS011;45412;54.472;18.464;2022-08-19T08:01:45;12.00;;;5.70;;
59587;SDS011;45412;54.472;18.464;2022-08-19T08:04:34;13.50;;;6.50;;
59587;SDS011;45412;54.472;18.464;2022-08-19T08:07:41;12.80;;;6.00;;
59587;SDS011;45412;54.472;18.464;2022-08-19T08:10:48;12.60;;;5.90;;
59587;SDS011;45412;54.472;18.464;2022-08-19T08:13:43;13.90;;;5.90;;
59587;SDS011;45412;54.472;18.464;2022-08-19T08:16:36;12.30;;;6.10;;
59587;SDS011;45412;54.472;18.464;2022-08-19T08:19:34;11.90;;;5.10;;
59587;SDS011;45412;54.472;18.464;2022-08-19T08:22:23;12.60;;;6.00;;
59587;SDS011;45412;54.472;18.464;2022-08-19T08:25:31;11.50;;;6.10;;
59587;SDS011;45412;54.472;18.464;2022-08-19T08:28:22;11.50;;;5.80;;
59587;SDS011;45412;54.472;18.464;2022-08-19T08:31:12;11.70;;;5.80;;
59587;SDS011;45412;54.472;18.464;2022-08-19T08:34:00;13.50;;;6.60;;
59587;SDS011;45412;54.472;18.464;2022-08-19T08:36:48;12.20;;;6.40;;
59587;SDS011;45412;54.472;18.464;2022-08-19T08:39:38;11.50;;;6.30;;
59587;SDS011;45412;54.472;18.464;2022-08-19T08:42:32;11.90;;;6.90;;
59587;SDS011;45412;54.472;18.464;2022-08-19T08:45:23;12.50;;;6.60;;
59587;SDS011;45412;54.472;18.464;2022-08-19T08:48:45;13.50;;;7.00;;
59587;SDS011;45412;54.472;18.464;2022-08-19T08:51:45;14.70;;;7.30;;
59587;SDS011;45412;54.472;18.464;2022-08-19T08:54:48;13.70;;;7.40;;
59587;SDS011;45412;54.472;18.464;2022-08-19T09:00:38;15.20;;;7.40;;
59587;SDS011;45412;54.472;18.464;2022-08-19T09:03:30;19.90;;;8.60;;
59587;SDS011;45412;54.472;18.464;2022-08-19T09:06:24;14.30;;;7.10;;
59587;SDS011;45412;54.472;18.464;2022-08-19T09:09:48;19.00;;;7.30;;
59587;SDS011;45412;54.472;18.464;2022-08-19T09:13:11;13.80;;;6.60;;
59587;SDS011;45412;54.472;18.464;2022-08-19T09:16:24;15.60;;;7.10;;
59587;SDS011;45412;54.472;18.464;2022-08-19T09:19:14;14.40;;;6.90;;
59587;SDS011;45412;54.472;18.464;2022-08-19T09:22:08;18.90;;;7.20;;
59587;SDS011;45412;54.472;18.464;2022-08-19T09:24:57;15.10;;;6.40;;
59587;SDS011;45412;54.472;18.464;2022-08-19T09:27:45;14.20;;;6.80;;
59587;SDS011;45412;54.472;18.464;2022-08-19T09:30:38;15.30;;;5.70;;
59587;SDS011;45412;54.472;18.464;2022-08-19T09:33:28;13.80;;;5.80;;
59587;SDS011;45412;54.472;18.464;2022-08-19T09:36:18;10.40;;;5.30;;
59587;SDS011;45412;54.472;18.464;2022-08-19T09:39:21;9.50;;;5.10;;
59587;SDS011;45412;54.472;18.464;2022-08-19T09:42:09;11.50;;;5.20;;
59587;SDS011;45412;54.472;18.464;2022-08-19T09:45:06;9.90;;;5.00;;
59587;SDS011;45412;54.472;18.464;2022-08-19T09:47:57;13.90;;;5.60;;
59587;SDS011;45412;54.472;18.464;2022-08-19T09:50:44;14.60;;;5.40;;
59587;SDS011;45412;54.472;18.464;2022-08-19T09:53:38;11.80;;;5.00;;
59587;SDS011;45412;54.472;18.464;2022-08-19T09:56:26;11.70;;;4.90;;
59587;SDS011;45412;54.472;18.464;2022-08-19T09:59:15;12.20;;;4.90;;
59587;SDS011;45412;54.472;18.464;2022-08-19T10:02:03;10.90;;;4.70;;
59587;SDS011;45412;54.472;18.464;2022-08-19T10:04:57;13.90;;;5.00;;
59587;SDS011;45412;54.472;18.464;2022-08-19T10:08:13;12.90;;;4.40;;
59587;SDS011;45412;54.472;18.464;2022-08-19T10:11:06;12.50;;;4.60;;
59587;SDS011;45412;54.472;18.464;2022-08-19T10:14:17;12.30;;;4.10;;
59587;SDS011;45412;54.472;18.464;2022-08-19T10:17:09;10.70;;;4.90;;
59587;SDS011;45412;54.472;18.464;2022-08-19T10:20:06;12.10;;;4.60;;
59587;SDS011;45412;54.472;18.464;2022-08-19T10:22:54;9.10;;;4.50;;
59587;SDS011;45412;54.472;18.464;2022-08-19T10:25:42;11.80;;;5.10;;
59587;SDS011;45412;54.472;18.464;2022-08-19T10:28:35;13.50;;;4.90;;
59587;SDS011;45412;54.472;18.464;2022-08-19T10:31:33;13.10;;;5.50;;
59587;SDS011;45412;54.472;18.464;2022-08-19T10:34:41;12.30;;;5.30;;
59587;SDS011;45412;54.472;18.464;2022-08-19T10:37:36;17.80;;;8.10;;
59587;SDS011;45412;54.472;18.464;2022-08-19T10:40:43;11.60;;;5.80;;
59587;SDS011;45412;54.472;18.464;2022-08-19T10:43:31;12.10;;;6.20;;
59587;SDS011;45412;54.472;18.464;2022-08-19T10:46:18;13.80;;;6.00;;
59587;SDS011;45412;54.472;18.464;2022-08-19T10:49:09;15.00;;;7.20;;
59587;SDS011;45412;54.472;18.464;2022-08-19T10:51:58;15.70;;;7.30;;
59587;SDS011;45412;54.472;18.464;2022-08-19T10:55:07;13.00;;;7.40;;
59587;SDS011;45412;54.472;18.464;2022-08-19T10:58:18;15.10;;;6.10;;
59587;SDS011;45412;54.472;18.464;2022-08-19T11:01:09;13.70;;;6.50;;
59587;SDS011;45412;54.472;18.464;2022-08-19T11:03:57;14.90;;;7.90;;
59587;SDS011;45412;54.472;18.464;2022-08-19T11:06:50;12.70;;;6.30;;
59587;SDS011;45412;54.472;18.464;2022-08-19T11:09:40;13.80;;;8.10;;
59587;SDS011;45412;54.472;18.464;2022-08-19T11:12:33;12.60;;;5.90;;
59587;SDS011;45412;54.472;18.464;2022-08-19T11:15:23;15.40;;;6.00;;
59587;SDS011;45412;54.472;18.464;2022-08-19T11:18:16;11.10;;;5.40;;
59587;SDS011;45412;54.472;18.464;2022-08-19T11:21:14;12.50;;;5.10;;
59587;SDS011;45412;54.472;18.464;2022-08-19T11:24:43;9.60;;;4.50;;
59587;SDS011;45412;54.472;18.464;2022-08-19T11:32:34;11.10;;;5.20;;
59587;SDS011;45412;54.472;18.464;2022-08-19T11:35:23;9.90;;;5.20;;
59587;SDS011;45412;54.472;18.464;2022-08-19T11:38:12;14.10;;;5.10;;
59587;SDS011;45412;54.472;18.464;2022-08-19T11:46:08;14.50;;;5.40;;
59587;SDS011;45412;54.472;18.464;2022-08-19T11:49:02;11.10;;;5.40;;
59587;SDS011;45412;54.472;18.464;2022-08-19T11:51:53;14.60;;;5.10;;
59587;SDS011;45412;54.472;18.464;2022-08-19T11:54:42;11.40;;;5.40;;
59587;SDS011;45412;54.472;18.464;2022-08-19T11:57:37;13.00;;;5.20;;
59587;SDS011;45412;54.472;18.464;2022-08-19T12:00:48;13.30;;;5.60;;
59587;SDS011;45412;54.472;18.464;2022-08-19T12:03:36;10.90;;;5.80;;
59587;SDS011;45412;54.472;18.464;2022-08-19T12:06:37;11.80;;;5.30;;
59587;SDS011;45412;54.472;18.464;2022-08-19T12:09:42;14.10;;;5.50;;
59587;SDS011;45412;54.472;18.464;2022-08-19T12:12:46;15.20;;;6.30;;
59587;SDS011;45412;54.472;18.464;2022-08-19T12:15:46;16.10;;;6.10;;
59587;SDS011;45412;54.472;18.464;2022-08-19T12:18:53;16.70;;;6.70;;
59587;SDS011;45412;54.472;18.464;2022-08-19T12:22:00;13.50;;;6.40;;
59587;SDS011;45412;54.472;18.464;2022-08-19T12:24:55;11.60;;;6.10;;
59587;SDS011;45412;54.472;18.464;2022-08-19T12:27:45;13.70;;;6.50;;
59587;SDS011;45412;54.472;18.464;2022-08-19T12:30:43;12.70;;;6.70;;
59587;SDS011;45412;54.472;18.464;2022-08-19T12:33:31;15.30;;;7.00;;
59587;SDS011;45412;54.472;18.464;2022-08-19T12:36:23;13.50;;;6.60;;
59587;SDS011;45412;54.472;18.464;2022-08-19T12:39:14;15.50;;;6.60;;
59587;SDS011;45412;54.472;18.464;2022-08-19T12:42:06;15.30;;;6.40;;
59587;SDS011;45412;54.472;18.464;2022-08-19T12:44:59;13.30;;;6.50;;
59587;SDS011;45412;54.472;18.464;2022-08-19T12:47:47;15.00;;;7.00;;
59587;SDS011;45412;54.472;18.464;2022-08-19T12:50:40;11.30;;;6.20;;
59587;SDS011;45412;54.472;18.464;2022-08-19T12:53:32;13.60;;;6.60;;
59587;SDS011;45412;54.472;18.464;2022-08-19T12:56:25;14.60;;;7.10;;
59587;SDS011;45412;54.472;18.464;2022-08-19T12:59:15;14.30;;;8.90;;
59587;SDS011;45412;54.472;18.464;2022-08-19T13:02:09;15.60;;;7.50;;
59587;SDS011;45412;54.472;18.464;2022-08-19T13:05:00;14.50;;;7.30;;
59587;SDS011;45412;54.472;18.464;2022-08-19T13:07:54;14.90;;;7.60;;
59587;SDS011;45412;54.472;18.464;2022-08-19T13:10:43;12.30;;;7.30;;
59587;SDS011;45412;54.472;18.464;2022-08-19T13:13:31;17.50;;;7.50;;
59587;SDS011;45412;54.472;18.464;2022-08-19T13:16:20;14.90;;;7.40;;
59587;SDS011;45412;54.472;18.464;2022-08-19T13:19:08;13.40;;;6.60;;
59587;SDS011;45412;54.472;18.464;2022-08-19T13:21:57;13.40;;;6.60;;
59587;SDS011;45412;54.472;18.464;2022-08-19T13:24:46;12.80;;;7.00;;
59587;SDS011;45412;54.472;18.464;2022-08-19T13:27:36;15.20;;;7.90;;
59587;SDS011;45412;54.472;18.464;2022-08-19T13:30:24;16.20;;;10.10;;
59587;SDS011;45412;54.472;18.464;2022-08-19T13:33:31;18.60;;;9.60;;
59587;SDS011;45412;54.472;18.464;2022-08-19T13:36:20;23.90;;;18.10;;
59587;SDS011;45412;54.472;18.464;2022-08-19T13:39:08;14.50;;;7.20;;
59587;SDS011;45412;54.472;18.464;2022-08-19T13:41:56;14.50;;;9.80;;
59587;SDS011;45412;54.472;18.464;2022-08-19T13:44:52;20.00;;;11.30;;
59587;SDS011;45412;54.472;18.464;2022-08-19T13:47:41;11.10;;;6.60;;
59587;SDS011;45412;54.472;18.464;2022-08-19T13:50:32;16.30;;;8.40;;
59587;SDS011;45412;54.472;18.464;2022-08-19T13:53:23;14.60;;;7.80;;
59587;SDS011;45412;54.472;18.464;2022-08-19T13:56:17;13.90;;;6.90;;
59587;SDS011;45412;54.472;18.464;2022-08-19T13:59:14;12.10;;;6.90;;
59587;SDS011;45412;54.472;18.464;2022-08-19T14:02:04;11.10;;;6.50;;
59587;SDS011;45412;54.472;18.464;2022-08-19T14:04:53;12.90;;;6.50;;
59587;SDS011;45412;54.472;18.464;2022-08-19T14:07:42;11.50;;;6.70;;
59587;SDS011;45412;54.472;18.464;2022-08-19T14:10:33;16.10;;;7.20;;
59587;SDS011;45412;54.472;18.464;2022-08-19T14:13:24;12.40;;;6.70;;
59587;SDS011;45412;54.472;18.464;2022-08-19T14:16:13;13.80;;;6.80;;
59587;SDS011;45412;54.472;18.464;2022-08-19T14:19:02;16.20;;;7.00;;
59587;SDS011;45412;54.472;18.464;2022-08-19T14:21:51;13.00;;;6.60;;
59587;SDS011;45412;54.472;18.464;2022-08-19T14:24:38;12.90;;;6.60;;
59587;SDS011;45412;54.472;18.464;2022-08-19T14:27:34;14.90;;;6.10;;
59587;SDS011;45412;54.472;18.464;2022-08-19T14:30:28;14.20;;;6.90;;
59587;SDS011;45412;54.472;18.464;2022-08-19T14:33:19;15.90;;;8.20;;
59587;SDS011;45412;54.472;18.464;2022-08-19T14:36:06;16.00;;;7.50;;
59587;SDS011;45412;54.472;18.464;2022-08-19T14:38:54;12.90;;;6.80;;
59587;SDS011;45412;54.472;18.464;2022-08-19T14:41:42;13.90;;;6.90;;
59587;SDS011;45412;54.472;18.464;2022-08-19T14:44:32;14.80;;;6.70;;
59587;SDS011;45412;54.472;18.464;2022-08-19T14:47:21;14.30;;;6.90;;
59587;SDS011;45412;54.472;18.464;2022-08-19T14:50:11;19.80;;;7.60;;
59587;SDS011;45412;54.472;18.464;2022-08-19T14:53:07;12.80;;;6.30;;
59587;SDS011;45412;54.472;18.464;2022-08-19T14:56:00;12.80;;;5.80;;
59587;SDS011;45412;54.472;18.464;2022-08-19T14:58:48;13.70;;;6.90;;
59587;SDS011;45412;54.472;18.464;2022-08-19T15:01:39;13.40;;;6.40;;
59587;SDS011;45412;54.472;18.464;2022-08-19T15:04:27;11.80;;;6.00;;
59587;SDS011;45412;54.472;18.464;2022-08-19T15:07:19;12.20;;;5.60;;
59587;SDS011;45412;54.472;18.464;2022-08-19T15:10:08;16.50;;;6.50;;
59587;SDS011;45412;54.472;18.464;2022-08-19T15:12:59;11.40;;;5.90;;
59587;SDS011;45412;54.472;18.464;2022-08-19T15:15:47;12.20;;;6.20;;
59587;SDS011;45412;54.472;18.464;2022-08-19T15:18:36;13.60;;;6.40;;
59587;SDS011;45412;54.472;18.464;2022-08-19T15:21:24;14.20;;;6.10;;
59587;SDS011;45412;54.472;18.464;2022-08-19T15:24:16;15.70;;;6.50;;
59587;SDS011;45412;54.472;18.464;2022-08-19T15:27:04;17.00;;;6.50;;
59587;SDS011;45412;54.472;18.464;2022-08-19T15:29:53;13.30;;;6.00;;
59587;SDS011;45412;54.472;18.464;2022-08-19T15:32:47;15.20;;;6.30;;
59587;SDS011;45412;54.472;18.464;2022-08-19T15:35:35;15.70;;;6.50;;
59587;SDS011;45412;54.472;18.464;2022-08-19T15:38:23;14.60;;;6.50;;
59587;SDS011;45412;54.472;18.464;2022-08-19T15:41:19;14.10;;;6.40;;
59587;SDS011;45412;54.472;18.464;2022-08-19T15:44:14;14.50;;;6.20;;
59587;SDS011;45412;54.472;18.464;2022-08-19T15:47:04;11.90;;;6.60;;
59587;SDS011;45412;54.472;18.464;2022-08-19T15:49:52;11.20;;;6.30;;
59587;SDS011;45412;54.472;18.464;2022-08-19T15:52:52;12.50;;;6.50;;
59587;SDS011;45412;54.472;18.464;2022-08-19T15:55:44;14.20;;;6.90;;
59587;SDS011;45412;54.472;18.464;2022-08-19T15:58:32;10.40;;;6.20;;
59587;SDS011;45412;54.472;18.464;2022-08-19T16:01:41;16.50;;;6.50;;
59587;SDS011;45412;54.472;18.464;2022-08-19T16:04:47;12.50;;;6.70;;
59587;SDS011;45412;54.472;18.464;2022-08-19T16:07:54;14.40;;;7.30;;
59587;SDS011;45412;54.472;18.464;2022-08-19T16:10:42;12.90;;;7.20;;
59587;SDS011;45412;54.472;18.464;2022-08-19T16:13:29;15.20;;;6.50;;
59587;SDS011;45412;54.472;18.464;2022-08-19T16:16:24;12.80;;;6.90;;
59587;SDS011;45412;54.472;18.464;2022-08-19T16:19:23;14.40;;;7.10;;
59587;SDS011;45412;54.472;18.464;2022-08-19T16:22:11;11.90;;;6.80;;
59587;SDS011;45412;54.472;18.464;2022-08-19T16:24:59;14.20;;;7.10;;
59587;SDS011;45412;54.472;18.464;2022-08-19T16:27:48;16.40;;;7.00;;
59587;SDS011;45412;54.472;18.464;2022-08-19T16:30:53;13.70;;;7.10;;
59587;SDS011;45412;54.472;18.464;2022-08-19T16:33:40;13.30;;;6.90;;
59587;SDS011;45412;54.472;18.464;2022-08-19T16:36:28;13.10;;;6.80;;
59587;SDS011;45412;54.472;18.464;2022-08-19T16:39:17;15.50;;;7.00;;
59587;SDS011;45412;54.472;18.464;2022-08-19T16:42:06;13.50;;;7.30;;
59587;SDS011;45412;54.472;18.464;2022-08-19T16:44:55;21.00;;;7.60;;
59587;SDS011;45412;54.472;18.464;2022-08-19T16:47:43;12.80;;;7.10;;
59587;SDS011;45412;54.472;18.464;2022-08-19T16:50:31;13.20;;;6.90;;
59587;SDS011;45412;54.472;18.464;2022-08-19T16:53:37;18.80;;;7.70;;
59587;SDS011;45412;54.472;18.464;2022-08-19T16:56:26;13.80;;;7.10;;